createdAt,value
2018-07-13T00:01:45.274Z,76.73
2018-07-13T00:04:13.136Z,76.75
2018-07-13T00:06:40.354Z,76.48
2018-07-13T00:09:09.837Z,76.87
2018-07-13T00:11:37.474Z,77.43
2018-07-13T00:14:21.115Z,77.48
2018-07-13T00:19:38.605Z,78.11
2018-07-13T00:22:06.047Z,77.89
2018-07-13T00:24:33.306Z,78.24
2018-07-13T00:27:00.545Z,78.19
2018-07-13T00:29:27.778Z,77.89
2018-07-13T00:31:54.997Z,78.82
2018-07-13T00:34:22.258Z,79.03
2018-07-13T00:36:49.484Z,78.87
2018-07-13T00:39:16.732Z,78.68
2018-07-13T00:41:43.982Z,78.87
2018-07-13T00:44:11.218Z,78.61
2018-07-13T00:46:38.431Z,78.38
2018-07-13T00:49:05.709Z,78.88
2018-07-13T00:51:32.938Z,78.53
2018-07-13T00:54:00.220Z,78.53
2018-07-13T00:56:27.434Z,78.49
2018-07-13T00:58:54.678Z,78.78
2018-07-13T01:01:21.917Z,78.74
2018-07-13T01:03:49.195Z,78.98
2018-07-13T01:06:16.479Z,78.93
2018-07-13T01:08:43.729Z,79.08
2018-07-13T01:11:11.032Z,78.78
2018-07-13T01:13:38.306Z,79.27
2018-07-13T01:16:05.569Z,79.35
2018-07-13T01:18:32.828Z,79.34
2018-07-13T01:21:00.116Z,79.30
2018-07-13T01:23:27.339Z,79.40
2018-07-13T01:25:54.618Z,79.14
2018-07-13T01:28:21.846Z,78.83
2018-07-13T01:30:49.085Z,79.23
2018-07-13T01:33:16.314Z,78.92
2018-07-13T01:35:43.552Z,79.34
2018-07-13T01:38:10.825Z,79.13
2018-07-13T01:40:38.090Z,79.95
2018-07-13T01:43:05.383Z,79.30
2018-07-13T01:45:32.646Z,79.67
2018-07-13T01:47:59.897Z,79.73
2018-07-13T01:50:27.177Z,79.42
2018-07-13T01:52:54.444Z,79.65
2018-07-13T01:55:21.732Z,79.97
2018-07-13T01:57:48.978Z,79.65
2018-07-13T02:00:16.283Z,80.13
2018-07-13T02:02:43.555Z,80.12
2018-07-13T02:05:10.860Z,79.95
2018-07-13T02:07:38.096Z,79.69
2018-07-13T02:10:05.424Z,80.25
2018-07-13T02:12:32.698Z,80.42
2018-07-13T02:14:59.951Z,80.47
2018-07-13T02:17:27.154Z,81.24
2018-07-13T02:19:54.422Z,80.98
2018-07-13T02:22:21.702Z,81.43
2018-07-13T02:24:48.985Z,81.08
2018-07-13T02:27:16.674Z,81.29
2018-07-13T02:29:43.933Z,81.21
2018-07-13T02:32:11.174Z,81.38
2018-07-13T02:34:38.439Z,81.48
2018-07-13T02:37:06.094Z,81.12
2018-07-13T02:39:33.584Z,81.15
2018-07-13T02:42:00.826Z,81.35
2018-07-13T02:44:28.082Z,81.23
2018-07-13T02:46:55.340Z,81.20
2018-07-13T02:49:22.597Z,81.12
2018-07-13T02:51:49.879Z,81.32
2018-07-13T02:54:17.155Z,81.23
2018-07-13T02:56:44.504Z,81.13
2018-07-13T02:59:11.745Z,81.29
2018-07-13T03:01:39.067Z,81.54
2018-07-13T03:04:06.398Z,81.67
2018-07-13T03:06:33.734Z,81.71
2018-07-13T03:09:01.215Z,82.04
2018-07-13T03:11:29.391Z,81.39
2018-07-13T03:13:56.715Z,81.31
2018-07-13T03:16:24.638Z,81.22
2018-07-13T03:18:53.874Z,81.46
2018-07-13T03:21:22.749Z,81.59
2018-07-13T03:23:51.410Z,81.48
2018-07-13T03:26:18.832Z,81.40
2018-07-13T03:28:46.162Z,81.34
2018-07-13T03:31:13.505Z,81.14
2018-07-13T03:33:40.824Z,80.63
2018-07-13T03:36:08.166Z,80.43
2018-07-13T03:38:35.489Z,80.46
2018-07-13T03:41:02.885Z,79.96
2018-07-13T03:43:30.208Z,80.28
2018-07-13T03:45:57.523Z,79.68
2018-07-13T03:48:24.891Z,79.52
2018-07-13T03:50:52.249Z,79.40
2018-07-13T03:53:19.583Z,78.61
2018-07-13T03:55:46.922Z,78.77
2018-07-13T03:58:14.252Z,78.69
2018-07-13T04:00:41.582Z,78.43
2018-07-13T04:03:11.064Z,78.40
2018-07-13T04:05:38.392Z,77.65
2018-07-13T04:08:05.778Z,77.10
2018-07-13T04:10:33.195Z,77.02
2018-07-13T04:13:00.570Z,76.66
2018-07-13T04:15:28.627Z,76.15
2018-07-13T04:17:56.035Z,75.74
2018-07-13T04:20:23.641Z,75.76
2018-07-13T04:22:51.086Z,74.83
2018-07-13T04:25:18.449Z,75.17
2018-07-13T04:27:46.576Z,75.08
2018-07-13T04:30:14.049Z,75.28
2018-07-13T04:32:41.434Z,75.32
2018-07-13T04:35:08.836Z,74.86
2018-07-13T04:37:36.247Z,75.04
2018-07-13T04:40:03.846Z,74.90
2018-07-13T04:42:31.206Z,75.15
2018-07-13T04:44:58.535Z,75.59
2018-07-13T04:47:25.969Z,75.23
2018-07-13T04:49:53.291Z,75.25
2018-07-13T04:52:21.405Z,75.09
2018-07-13T04:54:49.156Z,74.43
2018-07-13T04:57:16.469Z,74.57
2018-07-13T04:59:44.036Z,74.35
2018-07-13T05:02:11.427Z,74.35
2018-07-13T05:04:38.713Z,73.80
2018-07-13T05:07:06.135Z,73.82
2018-07-13T05:09:33.523Z,73.69
2018-07-13T05:12:01.725Z,73.43
2018-07-13T05:14:29.073Z,73.49
2018-07-13T05:16:56.426Z,73.32
2018-07-13T05:19:23.802Z,73.57
2018-07-13T05:21:51.159Z,73.49
2018-07-13T05:24:19.486Z,73.37
2018-07-13T05:26:46.871Z,73.63
2018-07-13T05:29:14.887Z,73.26
2018-07-13T05:31:42.343Z,73.11
2018-07-13T05:34:10.026Z,72.62
2018-07-13T05:36:37.454Z,70.94
2018-07-13T05:39:08.416Z,69.76
2018-07-13T05:41:35.835Z,68.80
2018-07-13T05:44:03.352Z,68.02
2018-07-13T05:46:30.803Z,67.61
2018-07-13T05:48:58.272Z,67.24
2018-07-13T05:51:25.694Z,66.99
2018-07-13T05:53:53.059Z,66.24
2018-07-13T05:56:20.527Z,65.10
2018-07-13T05:58:48.050Z,63.15
2018-07-13T06:01:15.437Z,62.46
2018-07-13T06:03:43.513Z,61.21
2018-07-13T06:06:11.033Z,59.36
2018-07-13T06:08:38.411Z,59.17
2018-07-13T06:11:05.786Z,56.88
2018-07-13T06:13:33.174Z,54.77
2018-07-13T06:16:00.517Z,55.18
2018-07-13T06:18:27.878Z,55.39
2018-07-13T06:20:55.165Z,58.21
2018-07-13T06:23:23.095Z,59.09
2018-07-13T06:25:50.379Z,58.55
2018-07-13T06:28:17.740Z,57.75
2018-07-13T06:30:45.032Z,56.87
2018-07-13T06:33:12.395Z,54.65
2018-07-13T06:35:39.759Z,53.42
2018-07-13T06:38:07.155Z,52.96
2018-07-13T06:40:34.545Z,51.72
2018-07-13T06:43:01.934Z,52.04
2018-07-13T06:45:29.282Z,53.68
2018-07-13T06:47:56.620Z,52.57
2018-07-13T06:50:23.990Z,50.75
2018-07-13T06:52:51.357Z,50.78
2018-07-13T06:55:18.688Z,50.64
2018-07-13T06:57:57.298Z,49.63
2018-07-13T07:01:01.082Z,49.28
2018-07-13T07:03:29.422Z,48.36
2018-07-13T07:06:14.782Z,48.49
2018-07-13T07:08:45.566Z,50.30
2018-07-13T07:11:12.967Z,51.64
2018-07-13T07:13:43.405Z,52.39
2018-07-13T07:16:11.254Z,53.38
2018-07-13T07:18:38.614Z,53.84
2018-07-13T07:21:06.185Z,53.44
2018-07-13T07:23:34.203Z,53.68
2018-07-13T07:26:02.761Z,53.80
2018-07-13T07:28:30.115Z,53.62
2018-07-13T07:30:58.059Z,52.86
2018-07-13T07:33:25.452Z,50.91
2018-07-13T07:35:52.932Z,48.85
2018-07-13T07:38:20.342Z,46.02
2018-07-13T07:40:48.312Z,46.19
2018-07-13T07:43:15.943Z,47.19
2018-07-13T07:45:43.387Z,48.19
2018-07-13T07:48:11.022Z,49.12
2018-07-13T07:50:38.432Z,48.59
2018-07-13T07:53:05.851Z,47.96
2018-07-13T07:55:33.298Z,46.90
2018-07-13T07:58:00.675Z,45.40
2018-07-13T08:00:28.002Z,45.09
2018-07-13T08:02:55.390Z,46.49
2018-07-13T08:05:22.888Z,46.42
2018-07-13T08:07:50.198Z,47.29
2018-07-13T08:10:17.590Z,47.18
2018-07-13T08:12:44.919Z,46.19
2018-07-13T08:15:12.267Z,43.39
2018-07-13T08:17:39.640Z,41.94
2018-07-13T08:20:07.080Z,39.90
2018-07-13T08:22:44.123Z,36.58
2018-07-13T08:25:12.921Z,35.02
2018-07-13T08:27:50.886Z,35.24
2018-07-13T08:30:27.232Z,33.63
2018-07-13T08:32:54.583Z,33.21
2018-07-13T08:35:22.132Z,32.24
2018-07-13T08:37:49.574Z,31.17
2018-07-13T08:40:16.996Z,30.40
2018-07-13T08:42:44.953Z,30.08
2018-07-13T08:45:14.288Z,32.53
2018-07-13T08:47:42.185Z,31.98
2018-07-13T08:50:09.675Z,30.60
2018-07-13T08:52:37.049Z,32.09
2018-07-13T08:55:15.282Z,31.79
2018-07-13T08:57:43.708Z,32.94
2018-07-13T09:00:11.182Z,32.54
2018-07-13T09:02:39.773Z,32.92
2018-07-13T09:05:07.354Z,33.82
2018-07-13T09:07:35.688Z,34.20
2018-07-13T09:10:03.353Z,32.60
2018-07-13T09:12:30.925Z,30.90
2018-07-13T09:14:58.357Z,32.03
2018-07-13T09:17:25.746Z,30.84
2018-07-13T09:19:53.254Z,30.19
2018-07-13T09:22:21.216Z,29.19
2018-07-13T09:24:48.626Z,28.96
2018-07-13T09:27:16.209Z,28.01
2018-07-13T09:29:43.668Z,26.84
2018-07-13T09:32:11.063Z,27.45
2018-07-13T09:34:38.451Z,25.18
2018-07-13T09:37:05.850Z,25.68
2018-07-13T09:39:33.312Z,23.56
2018-07-13T09:42:00.647Z,23.87
2018-07-13T09:44:27.957Z,25.75
2018-07-13T09:46:55.597Z,25.07
2018-07-13T09:49:23.356Z,24.83
2018-07-13T09:51:51.116Z,23.76
2018-07-13T09:54:18.436Z,23.55
2018-07-13T09:56:46.149Z,22.94
2018-07-13T09:59:13.461Z,22.99
2018-07-13T10:01:40.832Z,22.92
2018-07-13T10:04:08.317Z,22.65
2018-07-13T10:06:35.650Z,20.89
2018-07-13T10:09:03.448Z,21.68
2018-07-13T10:11:30.864Z,22.32
2018-07-13T10:13:58.214Z,23.48
2018-07-13T10:16:25.632Z,22.24
2018-07-13T10:18:53.912Z,22.92
2018-07-13T10:21:21.375Z,23.01
2018-07-13T10:23:48.806Z,21.63
2018-07-13T10:26:21.014Z,22.20
2018-07-13T10:28:48.427Z,22.61
2018-07-13T10:31:16.044Z,21.83
2018-07-13T10:33:44.133Z,22.35
2018-07-13T10:36:13.833Z,22.81
2018-07-13T10:38:41.176Z,22.61
2018-07-13T10:41:08.648Z,22.22
2018-07-13T10:43:36.102Z,21.29
2018-07-13T10:46:03.523Z,22.55
2018-07-13T10:48:30.926Z,22.68
2018-07-13T10:50:58.299Z,22.67
2018-07-13T10:53:25.822Z,22.47
2018-07-13T10:55:53.152Z,21.38
2018-07-13T10:58:20.495Z,21.09
2018-07-13T11:00:47.854Z,20.17
2018-07-13T11:03:15.192Z,21.83
2018-07-13T11:05:42.579Z,20.74
2018-07-13T11:08:10.550Z,21.03
2018-07-13T11:10:37.834Z,21.47
2018-07-13T11:13:05.161Z,21.92
2018-07-13T11:15:32.533Z,21.84
2018-07-13T11:17:59.866Z,23.16
2018-07-13T11:20:27.259Z,23.52
2018-07-13T11:22:54.599Z,24.07
2018-07-13T11:25:21.960Z,24.32
2018-07-13T11:27:49.310Z,23.72
2018-07-13T11:30:16.650Z,22.50
2018-07-13T11:32:44.123Z,21.87
2018-07-13T11:35:12.130Z,21.64
2018-07-13T11:37:39.429Z,21.34
2018-07-13T11:40:06.781Z,20.43
2018-07-13T11:42:34.669Z,21.51
2018-07-13T11:45:02.075Z,21.97
2018-07-13T11:47:29.430Z,21.54
2018-07-13T11:49:56.761Z,21.56
2018-07-13T11:52:24.151Z,20.68
2018-07-13T11:54:51.451Z,21.48
2018-07-13T11:57:18.825Z,22.30
2018-07-13T11:59:46.200Z,22.32
2018-07-13T12:02:13.633Z,23.50
2018-07-13T12:04:40.951Z,24.12
2018-07-13T12:07:08.246Z,23.55
2018-07-13T12:09:35.607Z,22.53
2018-07-13T12:12:02.953Z,21.19
2018-07-13T12:14:30.327Z,22.06
2018-07-13T12:16:57.698Z,23.84
2018-07-13T12:19:25.062Z,23.47
2018-07-13T12:21:52.415Z,23.91
2018-07-13T12:24:19.780Z,22.46
2018-07-13T12:26:47.128Z,21.49
2018-07-13T12:29:14.435Z,21.85
2018-07-13T12:31:42.377Z,21.39
2018-07-13T12:34:10.489Z,21.51
2018-07-13T12:36:37.833Z,20.57
2018-07-13T12:39:05.972Z,23.14
2018-07-13T12:41:33.554Z,22.74
2018-07-13T12:44:00.906Z,22.82
2018-07-13T12:46:28.414Z,23.09
2018-07-13T12:48:55.780Z,22.58
2018-07-13T12:51:23.761Z,21.72
2018-07-13T12:53:51.193Z,23.07
2018-07-13T12:56:18.535Z,22.78
2018-07-13T12:58:45.906Z,21.37
2018-07-13T13:01:13.252Z,21.23
2018-07-13T13:03:40.604Z,21.87
2018-07-13T13:06:07.909Z,23.85
2018-07-13T13:08:35.302Z,23.99
2018-07-13T13:11:02.713Z,23.44
2018-07-13T13:13:30.282Z,23.21
2018-07-13T13:15:57.634Z,24.52
2018-07-13T13:18:24.978Z,24.39
2018-07-13T13:20:52.339Z,24.12
2018-07-13T13:23:19.741Z,23.59
2018-07-13T13:25:48.063Z,22.81
2018-07-13T13:28:15.437Z,22.16
2018-07-13T13:30:42.822Z,22.67
2018-07-13T13:33:12.235Z,21.63
2018-07-13T13:35:39.644Z,21.97
2018-07-13T13:38:07.261Z,21.79
2018-07-13T13:40:34.584Z,22.97
2018-07-13T13:43:01.909Z,24.03
2018-07-13T13:45:29.258Z,24.24
2018-07-13T13:47:56.573Z,25.03
2018-07-13T13:50:23.936Z,25.85
2018-07-13T13:52:51.298Z,26.22
2018-07-13T13:55:18.533Z,25.02
2018-07-13T13:57:45.923Z,24.47
2018-07-13T14:00:13.191Z,23.69
2018-07-13T14:02:40.660Z,22.97
2018-07-13T14:05:08.089Z,22.21
2018-07-13T14:07:35.435Z,23.08
2018-07-13T14:10:02.894Z,22.81
2018-07-13T14:12:31.057Z,22.36
2018-07-13T14:14:58.482Z,23.45
2018-07-13T14:17:25.754Z,24.31
2018-07-13T14:19:53.173Z,23.23
2018-07-13T14:22:21.475Z,24.49
2018-07-13T14:24:48.982Z,24.94
2018-07-13T14:27:16.326Z,24.22
2018-07-13T14:29:43.632Z,24.64
2018-07-13T14:32:11.027Z,25.99
2018-07-13T14:34:38.373Z,26.39
2018-07-13T14:37:05.735Z,25.92
2018-07-13T14:39:34.122Z,25.62
2018-07-13T14:42:01.423Z,25.41
2018-07-13T14:44:28.811Z,25.25
2018-07-13T14:46:56.223Z,24.32
2018-07-13T14:49:23.575Z,24.14
2018-07-13T14:51:50.935Z,24.16
2018-07-13T14:54:18.857Z,24.38
2018-07-13T14:56:46.341Z,25.15
2018-07-13T14:59:14.207Z,24.10
2018-07-13T15:01:42.940Z,24.33
2018-07-13T15:04:10.349Z,24.89
2018-07-13T15:06:37.873Z,24.34
2018-07-13T15:09:05.370Z,25.26
2018-07-13T15:11:33.682Z,24.36
2018-07-13T15:14:01.056Z,24.44
2018-07-13T15:16:28.407Z,25.16
2018-07-13T15:18:55.713Z,26.16
2018-07-13T15:21:23.050Z,25.46
2018-07-13T15:23:50.416Z,25.40
2018-07-13T15:26:17.789Z,24.85
2018-07-13T15:28:45.172Z,25.95
2018-07-13T15:31:12.461Z,25.12
2018-07-13T15:33:40.079Z,24.69
2018-07-13T15:36:07.439Z,25.20
2018-07-13T15:38:41.446Z,25.27
2018-07-13T15:41:08.824Z,24.25
2018-07-13T15:43:36.239Z,24.45
2018-07-13T15:46:03.562Z,24.81
2018-07-13T15:48:30.959Z,25.06
2018-07-13T15:50:58.356Z,25.41
2018-07-13T15:53:25.719Z,25.12
2018-07-13T15:55:57.998Z,25.17
2018-07-13T15:58:28.547Z,25.81
2018-07-13T16:00:56.182Z,25.81
2018-07-13T16:03:23.726Z,25.33
2018-07-13T16:05:51.119Z,25.99
2018-07-13T16:08:19.272Z,26.03
2018-07-13T16:10:46.804Z,25.42
2018-07-13T16:13:14.093Z,25.89
2018-07-13T16:15:41.630Z,26.26
2018-07-13T16:18:08.996Z,25.55
2018-07-13T16:20:36.394Z,26.14
2018-07-13T16:23:03.780Z,26.78
2018-07-13T16:25:32.443Z,26.34
2018-07-13T16:27:59.780Z,25.72
2018-07-13T16:30:27.141Z,26.13
2018-07-13T16:32:54.476Z,26.37
2018-07-13T16:35:21.989Z,26.53
2018-07-13T16:37:49.312Z,26.32
2018-07-13T16:40:16.741Z,26.91
2018-07-13T16:42:44.095Z,28.40
2018-07-13T16:45:12.082Z,26.92
2018-07-13T16:47:39.342Z,27.68
2018-07-13T16:50:06.757Z,27.67
2018-07-13T16:52:34.361Z,28.08
2018-07-13T16:55:02.516Z,27.73
2018-07-13T16:57:29.817Z,27.58
2018-07-13T16:59:57.149Z,28.18
2018-07-13T17:02:24.491Z,27.91
2018-07-13T17:04:51.836Z,27.80
2018-07-13T17:07:19.331Z,28.27
2018-07-13T17:09:46.694Z,28.68
2018-07-13T17:12:14.082Z,28.54
2018-07-13T17:14:41.411Z,29.07
2018-07-13T17:17:08.755Z,29.39
2018-07-13T17:19:36.824Z,29.82
2018-07-13T17:22:04.250Z,29.56
2018-07-13T17:24:31.590Z,29.61
2018-07-13T17:26:58.929Z,30.17
2018-07-13T17:29:26.284Z,29.45
2018-07-13T17:31:53.694Z,30.29
2018-07-13T17:34:21.002Z,30.50
2018-07-13T17:36:48.392Z,30.88
2018-07-13T17:39:25.463Z,30.87
2018-07-13T17:41:52.931Z,31.20
2018-07-13T17:44:21.927Z,30.74
2018-07-13T17:46:49.353Z,31.39
2018-07-13T17:49:16.877Z,31.70
2018-07-13T17:51:45.560Z,31.79
2018-07-13T17:54:13.209Z,31.91
2018-07-13T17:56:40.744Z,31.93
2018-07-13T17:59:08.184Z,32.27
2018-07-13T18:01:35.867Z,32.31
2018-07-13T18:04:03.950Z,31.88
2018-07-13T18:06:31.502Z,32.07
2018-07-13T18:08:59.100Z,33.05
2018-07-13T18:11:26.776Z,33.30
2018-07-13T18:13:54.374Z,33.48
2018-07-13T18:16:23.137Z,34.06
2018-07-13T18:18:50.588Z,33.99
2018-07-13T18:21:18.449Z,34.38
2018-07-13T18:23:45.870Z,35.23
2018-07-13T18:26:13.379Z,35.38
2018-07-13T18:28:41.066Z,35.54
2018-07-13T18:31:08.519Z,36.19
2018-07-13T18:33:35.932Z,35.88
2018-07-13T18:36:03.573Z,36.01
2018-07-13T18:38:31.087Z,36.47
2018-07-13T18:40:58.556Z,36.88
2018-07-13T18:43:26.029Z,37.49
2018-07-13T18:45:53.523Z,37.52
2018-07-13T18:48:21.065Z,37.65
2018-07-13T18:50:48.533Z,38.50
2018-07-13T18:53:15.911Z,38.21
2018-07-13T18:55:44.378Z,38.28
2018-07-13T18:58:11.807Z,39.06
2018-07-13T19:00:39.326Z,39.14
2018-07-13T19:03:07.386Z,39.82
2018-07-13T19:05:34.891Z,39.58
2018-07-13T19:08:04.560Z,39.91
2018-07-13T19:10:32.029Z,40.36
2018-07-13T19:12:59.578Z,40.53
2018-07-13T19:15:27.245Z,40.74
2018-07-13T19:17:55.753Z,41.65
2018-07-13T19:20:23.288Z,41.43
2018-07-13T19:22:50.917Z,42.12
2018-07-13T19:25:19.219Z,42.37
2018-07-13T19:27:47.680Z,42.63
2018-07-13T19:30:15.745Z,42.88
2018-07-13T19:32:44.437Z,43.33
2018-07-13T19:35:11.814Z,43.34
2018-07-13T19:37:39.427Z,43.82
2018-07-13T19:40:06.902Z,44.24
2018-07-13T19:42:34.382Z,44.79
2018-07-13T19:45:02.345Z,45.24
2018-07-13T19:47:29.779Z,45.52
2018-07-13T19:49:57.090Z,45.91
2018-07-13T19:52:24.486Z,46.21
2018-07-13T19:54:51.925Z,46.42
2018-07-13T19:57:19.449Z,46.44
2018-07-13T19:59:46.723Z,47.09
2018-07-13T20:02:14.127Z,47.47
2018-07-13T20:04:41.431Z,48.30
2018-07-13T20:07:08.793Z,48.97
2018-07-13T20:09:36.186Z,49.19
2018-07-13T20:12:04.288Z,49.19
2018-07-13T20:14:32.560Z,49.83
2018-07-13T20:16:59.935Z,50.14
2018-07-13T20:19:27.313Z,50.23
2018-07-13T20:21:55.494Z,50.35
2018-07-13T20:24:22.826Z,50.85
2018-07-13T20:26:50.211Z,51.05
2018-07-13T20:29:17.576Z,51.12
2018-07-13T20:31:44.954Z,50.99
2018-07-13T20:34:12.368Z,51.25
2018-07-13T20:36:41.089Z,51.57
2018-07-13T20:39:08.468Z,51.81
2018-07-13T20:41:36.274Z,51.89
2018-07-13T20:44:03.583Z,52.12
2018-07-13T20:46:30.852Z,52.14
2018-07-13T20:48:58.100Z,52.22
2018-07-13T20:51:25.510Z,52.29
2018-07-13T20:53:52.765Z,52.51
2018-07-13T20:56:21.093Z,52.44
2018-07-13T20:58:48.513Z,52.52
2018-07-13T21:01:15.770Z,52.37
2018-07-13T21:03:43.038Z,53.15
2018-07-13T21:06:10.301Z,53.54
2018-07-13T21:08:37.631Z,54.03
2018-07-13T21:11:04.887Z,54.82
2018-07-13T21:13:32.153Z,55.38
2018-07-13T21:15:59.370Z,55.63
2018-07-13T21:18:26.665Z,56.00
2018-07-13T21:20:53.969Z,56.64
2018-07-13T21:23:21.157Z,56.61
2018-07-13T21:25:48.394Z,56.87
2018-07-13T21:28:15.661Z,58.21
2018-07-13T21:30:42.931Z,58.45
2018-07-13T21:33:10.216Z,58.76
2018-07-13T21:35:37.479Z,59.13
2018-07-13T21:38:05.069Z,60.17
2018-07-13T21:40:32.554Z,60.54
2018-07-13T21:42:59.841Z,61.20
2018-07-13T21:45:27.082Z,61.65
2018-07-13T21:47:54.362Z,62.41
2018-07-13T21:50:21.609Z,62.17
2018-07-13T21:52:48.865Z,62.72
2018-07-13T21:55:16.133Z,62.54
2018-07-13T21:57:43.384Z,63.39
2018-07-13T22:00:10.681Z,63.35
2018-07-13T22:02:37.950Z,62.79
2018-07-13T22:05:05.393Z,62.92
2018-07-13T22:07:32.685Z,62.81
2018-07-13T22:09:59.989Z,63.19
2018-07-13T22:12:27.298Z,63.10
2018-07-13T22:14:54.537Z,63.40
2018-07-13T22:17:21.789Z,63.63
2018-07-13T22:19:49.035Z,63.80
2018-07-13T22:22:16.319Z,64.31
2018-07-13T22:24:43.583Z,64.30
2018-07-13T22:27:10.846Z,64.42
2018-07-13T22:29:38.292Z,64.30
2018-07-13T22:32:05.889Z,63.98
2018-07-13T22:34:33.181Z,64.30
2018-07-13T22:37:00.406Z,64.47
2018-07-13T22:39:27.662Z,65.08
2018-07-13T22:41:54.899Z,65.40
2018-07-13T22:44:22.210Z,65.13
2018-07-13T22:46:49.450Z,65.29
2018-07-13T22:49:16.678Z,65.06
2018-07-13T22:51:44.115Z,65.87
2018-07-13T22:54:11.392Z,65.62
2018-07-13T22:56:38.677Z,65.88
2018-07-13T22:59:05.988Z,65.77
2018-07-13T23:01:33.247Z,66.23
2018-07-13T23:04:00.531Z,66.25
2018-07-13T23:06:27.764Z,66.39
2018-07-13T23:08:55.030Z,66.01
2018-07-13T23:11:22.295Z,66.99
2018-07-13T23:13:49.588Z,67.03
2018-07-13T23:16:16.822Z,67.78
2018-07-13T23:18:44.083Z,68.33
2018-07-13T23:21:11.341Z,68.49
2018-07-13T23:23:38.575Z,68.71
2018-07-13T23:26:05.859Z,69.40
2018-07-13T23:28:33.127Z,69.14
2018-07-13T23:31:00.352Z,69.72
2018-07-13T23:33:27.607Z,70.00
2018-07-13T23:35:54.843Z,69.68
2018-07-13T23:38:22.079Z,69.92
2018-07-13T23:40:49.340Z,70.06
2018-07-13T23:43:16.642Z,70.24
2018-07-13T23:45:43.918Z,70.61
2018-07-13T23:48:11.191Z,70.88
2018-07-13T23:50:38.447Z,70.96
2018-07-13T23:53:05.690Z,70.59
2018-07-13T23:55:32.927Z,70.95
2018-07-13T23:58:00.178Z,71.09
